createdAt,value
2018-01-21T00:00:38.507Z,100363.85
2018-01-21T00:01:43.119Z,100362.12
2018-01-21T00:02:47.427Z,100370.94
2018-01-21T00:03:51.840Z,100358.73
2018-01-21T00:04:56.247Z,100360.52
2018-01-21T00:06:00.586Z,100365.83
2018-01-21T00:07:06.079Z,100366.27
2018-01-21T00:08:10.675Z,100369.40
2018-01-21T00:09:15.538Z,100368.52
2018-01-21T00:10:22.006Z,100369.84
2018-01-21T00:11:26.643Z,100374.23
2018-01-21T00:12:30.896Z,100373.77
2018-01-21T00:13:35.221Z,100377.71
2018-01-21T00:14:39.935Z,100378.98
2018-01-21T00:15:44.838Z,100378.09
2018-01-21T00:16:49.153Z,100386.37
2018-01-21T00:17:53.367Z,100387.23
2018-01-21T00:18:57.671Z,100393.80
2018-01-21T00:20:02.025Z,100396.86
2018-01-21T00:21:06.741Z,100393.42
2018-01-21T00:22:11.597Z,100396.59
2018-01-21T00:23:16.860Z,100391.78
2018-01-21T00:24:22.404Z,100399.67
2018-01-21T00:25:26.663Z,100401.00
2018-01-21T00:26:30.920Z,100400.54
2018-01-21T00:27:35.256Z,100405.77
2018-01-21T00:28:39.570Z,100407.52
2018-01-21T00:29:43.907Z,100408.87
2018-01-21T00:30:48.387Z,100411.95
2018-01-21T00:31:52.600Z,100413.73
2018-01-21T00:32:56.811Z,100411.05
2018-01-21T00:34:01.086Z,100424.22
2018-01-21T00:35:05.466Z,100428.58
2018-01-21T00:36:09.746Z,100425.07
2018-01-21T00:37:13.987Z,100423.30
2018-01-21T00:38:19.123Z,100428.52
2018-01-21T00:39:24.608Z,100428.99
2018-01-21T00:40:28.884Z,100435.12
2018-01-21T00:41:33.212Z,100439.54
2018-01-21T00:42:37.571Z,100437.75
2018-01-21T00:43:41.829Z,100440.82
2018-01-21T00:44:46.557Z,100445.61
2018-01-21T00:45:51.046Z,100444.20
2018-01-21T00:46:55.355Z,100441.53
2018-01-21T00:47:59.612Z,100447.63
2018-01-21T00:49:03.914Z,100449.27
2018-01-21T00:50:08.223Z,100453.99
2018-01-21T00:51:12.789Z,100455.23
2018-01-21T00:52:17.087Z,100466.08
2018-01-21T00:53:21.289Z,100460.30
2018-01-21T00:54:26.135Z,100469.45
2018-01-21T00:55:30.528Z,100472.08
2018-01-21T00:56:34.791Z,100473.52
2018-01-21T00:57:38.994Z,100471.84
2018-01-21T00:58:43.227Z,100478.42
2018-01-21T00:59:47.506Z,100477.36
2018-01-21T01:00:52.217Z,100473.84
2018-01-21T01:01:56.795Z,100473.45
2018-01-21T01:03:01.042Z,100477.29
2018-01-21T01:04:05.674Z,100479.81
2018-01-21T01:05:10.059Z,100487.14
2018-01-21T01:06:14.398Z,100486.57
2018-01-21T01:07:19.483Z,100484.47
2018-01-21T01:08:24.088Z,100485.91
2018-01-21T01:09:28.282Z,100488.41
2018-01-21T01:10:32.848Z,100492.66
2018-01-21T01:11:37.115Z,100496.55
2018-01-21T01:12:42.380Z,100494.23
2018-01-21T01:13:46.543Z,100491.92
2018-01-21T01:14:50.781Z,100501.02
2018-01-21T01:15:55.678Z,100495.78
2018-01-21T01:17:01.345Z,100493.63
2018-01-21T01:18:05.594Z,100496.30
2018-01-21T01:19:09.892Z,100496.70
2018-01-21T01:20:14.190Z,100494.41
2018-01-21T01:21:18.553Z,100494.78
2018-01-21T01:22:22.824Z,100499.05
2018-01-21T01:23:28.358Z,100498.99
2018-01-21T01:24:32.707Z,100500.57
2018-01-21T01:25:36.971Z,100507.45
2018-01-21T01:26:41.253Z,100509.05
2018-01-21T01:27:45.427Z,100505.04
2018-01-21T01:28:50.034Z,100508.56
2018-01-21T01:29:54.283Z,100506.42
2018-01-21T01:30:58.826Z,100502.01
2018-01-21T01:32:03.276Z,100497.11
2018-01-21T01:33:07.562Z,100502.81
2018-01-21T01:34:11.781Z,100508.48
2018-01-21T01:35:16.298Z,100512.84
2018-01-21T01:36:21.443Z,100518.48
2018-01-21T01:37:26.292Z,100515.04
2018-01-21T01:38:30.467Z,100516.03
2018-01-21T01:39:34.651Z,100521.80
2018-01-21T01:40:38.811Z,100522.55
2018-01-21T01:41:43.318Z,100520.78
2018-01-21T01:42:47.576Z,100523.47
2018-01-21T01:43:51.790Z,100531.48
2018-01-21T01:44:56.023Z,100540.28
2018-01-21T01:46:00.302Z,100545.11
2018-01-21T01:47:04.603Z,100537.23
2018-01-21T01:48:08.984Z,100532.48
2018-01-21T01:49:13.172Z,100542.88
2018-01-21T01:50:18.393Z,100538.98
2018-01-21T01:51:22.622Z,100553.98
2018-01-21T01:52:27.412Z,100550.05
2018-01-21T01:53:31.664Z,100558.43
2018-01-21T01:54:36.160Z,100558.41
2018-01-21T01:55:40.353Z,100559.23
2018-01-21T01:56:44.590Z,100561.86
2018-01-21T01:57:48.883Z,100564.55
2018-01-21T01:58:53.066Z,100561.55
2018-01-21T01:59:57.411Z,100567.30
2018-01-21T02:01:02.443Z,100562.98
2018-01-21T02:02:06.626Z,100567.30
2018-01-21T02:03:10.867Z,100572.11
2018-01-21T02:04:15.093Z,100569.48
2018-01-21T02:05:19.254Z,100573.86
2018-01-21T02:06:23.373Z,100575.55
2018-01-21T02:07:27.841Z,100576.86
2018-01-21T02:08:32.139Z,100579.05
2018-01-21T02:09:36.328Z,100576.91
2018-01-21T02:10:40.504Z,100569.11
2018-01-21T02:11:44.730Z,100573.48
2018-01-21T02:12:49.038Z,100580.05
2018-01-21T02:13:53.612Z,100582.17
2018-01-21T02:14:57.812Z,100587.44
2018-01-21T02:16:02.444Z,100577.88
2018-01-21T02:17:06.833Z,100577.42
2018-01-21T02:18:11.049Z,100581.42
2018-01-21T02:19:15.676Z,100576.99
2018-01-21T02:20:20.163Z,100587.53
2018-01-21T02:21:24.446Z,100581.03
2018-01-21T02:22:28.666Z,100588.03
2018-01-21T02:23:32.922Z,100590.61
2018-01-21T02:24:37.238Z,100590.55
2018-01-21T02:25:41.870Z,100592.68
2018-01-21T02:26:46.181Z,100592.62
2018-01-21T02:27:50.429Z,100590.47
2018-01-21T02:28:54.735Z,100587.04
2018-01-21T02:29:59.052Z,100590.48
2018-01-21T02:31:03.445Z,100592.66
2018-01-21T02:32:08.032Z,100587.30
2018-01-21T02:33:12.265Z,100588.98
2018-01-21T02:34:20.865Z,100594.17
2018-01-21T02:35:25.204Z,100594.09
2018-01-21T02:36:29.588Z,100597.65
2018-01-21T02:37:33.905Z,100606.53
2018-01-21T02:38:38.125Z,100613.61
2018-01-21T02:39:42.343Z,100614.12
2018-01-21T02:40:46.618Z,100615.04
2018-01-21T02:41:50.975Z,100618.17
2018-01-21T02:42:55.191Z,100625.69
2018-01-21T02:43:59.394Z,100626.93
2018-01-21T02:45:05.993Z,100635.36
2018-01-21T02:46:10.325Z,100629.06
2018-01-21T02:47:14.518Z,100633.42
2018-01-21T02:48:19.710Z,100636.98
2018-01-21T02:49:23.907Z,100639.31
2018-01-21T02:50:28.501Z,100640.77
2018-01-21T02:51:33.224Z,100641.31
2018-01-21T02:52:37.439Z,100640.83
2018-01-21T02:53:41.669Z,100639.18
2018-01-21T02:54:45.895Z,100636.00
2018-01-21T02:55:50.700Z,100637.68
2018-01-21T02:56:55.328Z,100644.63
2018-01-21T02:57:59.902Z,100646.38
2018-01-21T02:59:04.135Z,100646.39
2018-01-21T03:00:08.435Z,100646.45
2018-01-21T03:01:12.956Z,100650.89
2018-01-21T03:02:17.161Z,100645.27
2018-01-21T03:03:22.176Z,100645.05
2018-01-21T03:04:26.640Z,100648.44
2018-01-21T03:05:30.791Z,100648.89
2018-01-21T03:06:35.029Z,100649.28
2018-01-21T03:07:39.256Z,100651.45
2018-01-21T03:08:43.428Z,100654.03
2018-01-21T03:09:47.606Z,100655.61
2018-01-21T03:10:52.194Z,100653.80
2018-01-21T03:11:56.564Z,100655.56
2018-01-21T03:13:00.730Z,100655.08
2018-01-21T03:14:04.979Z,100656.00
2018-01-21T03:15:09.655Z,100656.11
2018-01-21T03:16:13.907Z,100659.19
2018-01-21T03:17:18.493Z,100659.19
2018-01-21T03:18:23.612Z,100664.11
2018-01-21T03:19:27.854Z,100659.84
2018-01-21T03:20:32.002Z,100657.55
2018-01-21T03:21:36.222Z,100657.77
2018-01-21T03:22:40.471Z,100667.06
2018-01-21T03:23:44.707Z,100677.16
2018-01-21T03:24:49.006Z,100673.52
2018-01-21T03:25:53.185Z,100673.56
2018-01-21T03:26:57.345Z,100677.95
2018-01-21T03:28:01.688Z,100678.25
2018-01-21T03:29:05.954Z,100681.07
2018-01-21T03:30:12.754Z,100686.22
2018-01-21T03:31:17.624Z,100688.21
2018-01-21T03:32:23.011Z,100701.53
2018-01-21T03:33:27.302Z,100697.34
2018-01-21T03:34:31.518Z,100702.05
2018-01-21T03:35:35.838Z,100713.27
2018-01-21T03:36:40.282Z,100712.25
2018-01-21T03:37:44.430Z,100710.79
2018-01-21T03:38:48.750Z,100716.84
2018-01-21T03:39:53.110Z,100719.47
2018-01-21T03:40:57.363Z,100720.86
2018-01-21T03:42:01.638Z,100724.08
2018-01-21T03:43:06.225Z,100725.58
2018-01-21T03:44:10.418Z,100735.36
2018-01-21T03:45:17.037Z,100722.25
2018-01-21T03:46:21.220Z,100728.44
2018-01-21T03:47:25.441Z,100728.52
2018-01-21T03:48:29.732Z,100726.82
2018-01-21T03:49:33.986Z,100724.64
2018-01-21T03:50:38.122Z,100726.39
2018-01-21T03:51:42.330Z,100727.38
2018-01-21T03:52:46.521Z,100732.33
2018-01-21T03:53:50.822Z,100723.12
2018-01-21T03:54:54.994Z,100722.64
2018-01-21T03:55:59.433Z,100722.86
2018-01-21T03:57:03.568Z,100728.12
2018-01-21T03:58:07.780Z,100730.42
2018-01-21T03:59:12.058Z,100731.98
2018-01-21T04:00:17.240Z,100728.14
2018-01-21T04:01:21.875Z,100730.14
2018-01-21T04:02:27.404Z,100738.07
2018-01-21T04:03:31.638Z,100735.69
2018-01-21T04:04:35.922Z,100737.30
2018-01-21T04:05:40.117Z,100738.00
2018-01-21T04:06:44.350Z,100742.59
2018-01-21T04:07:48.593Z,100747.35
2018-01-21T04:08:53.214Z,100745.91
2018-01-21T04:09:57.342Z,100743.15
2018-01-21T04:11:01.497Z,100758.78
2018-01-21T04:12:05.646Z,100760.34
2018-01-21T04:13:09.999Z,100757.03
2018-01-21T04:14:14.506Z,100756.01
2018-01-21T04:15:19.612Z,100755.78
2018-01-21T04:16:23.773Z,100755.61
2018-01-21T04:17:28.047Z,100763.84
2018-01-21T04:18:32.240Z,100765.58
2018-01-21T04:19:36.501Z,100769.09
2018-01-21T04:22:07.319Z,100767.25
2018-01-21T04:23:11.513Z,100771.86
2018-01-21T04:24:15.749Z,100770.03
2018-01-21T04:25:21.867Z,100781.16
2018-01-21T04:26:27.813Z,100777.13
2018-01-21T04:27:32.487Z,100779.74
2018-01-21T04:28:37.368Z,100776.03
2018-01-21T04:29:41.517Z,100783.53
2018-01-21T04:30:46.245Z,100786.71
2018-01-21T04:31:50.723Z,100784.91
2018-01-21T04:32:55.849Z,100792.41
2018-01-21T04:34:01.097Z,100792.61
2018-01-21T04:35:05.308Z,100789.64
2018-01-21T04:36:09.545Z,100792.83
2018-01-21T04:37:13.709Z,100794.16
2018-01-21T04:38:18.152Z,100796.26
2018-01-21T04:39:22.943Z,100799.63
2018-01-21T04:40:27.473Z,100803.42
2018-01-21T04:41:31.889Z,100809.57
2018-01-21T04:42:37.090Z,100802.01
2018-01-21T04:43:41.286Z,100807.16
2018-01-21T04:44:45.490Z,100815.11
2018-01-21T04:45:50.652Z,100815.66
2018-01-21T04:46:55.209Z,100810.59
2018-01-21T04:47:59.320Z,100814.62
2018-01-21T04:49:03.607Z,100818.22
2018-01-21T04:50:09.076Z,100825.52
2018-01-21T04:51:13.837Z,100825.45
2018-01-21T04:52:18.984Z,100831.47
2018-01-21T04:53:23.392Z,100832.22
2018-01-21T04:54:28.369Z,100830.77
2018-01-21T04:55:32.584Z,100837.34
2018-01-21T04:56:38.435Z,100835.98
2018-01-21T04:57:43.668Z,100835.55
2018-01-21T04:58:47.771Z,100840.29
2018-01-21T04:59:52.001Z,100841.53
2018-01-21T05:00:57.996Z,100842.03
2018-01-21T05:02:03.115Z,100848.55
2018-01-21T05:03:07.949Z,100847.36
2018-01-21T05:04:13.867Z,100848.61
2018-01-21T05:05:19.680Z,100848.09
2018-01-21T05:06:25.917Z,100844.52
2018-01-21T05:07:30.103Z,100852.48
2018-01-21T05:08:35.106Z,100848.09
2018-01-21T05:09:41.835Z,100848.09
2018-01-21T05:10:47.001Z,100849.48
2018-01-21T05:11:52.073Z,100849.11
2018-01-21T05:12:58.546Z,100844.81
2018-01-21T05:14:02.807Z,100850.94
2018-01-21T05:15:07.375Z,100853.44
2018-01-21T05:16:12.502Z,100855.99
2018-01-21T05:17:17.125Z,100859.58
2018-01-21T05:18:21.786Z,100865.23
2018-01-21T05:19:38.118Z,100861.48
2018-01-21T05:20:43.145Z,100862.40
2018-01-21T05:21:48.861Z,100869.43
2018-01-21T05:22:52.959Z,100873.87
2018-01-21T05:23:57.888Z,100872.06
2018-01-21T05:25:03.335Z,100877.73
2018-01-21T05:26:07.829Z,100881.71
2018-01-21T05:27:12.030Z,100880.17
2018-01-21T05:28:17.790Z,100878.75
2018-01-21T05:29:26.640Z,100886.92
2018-01-21T05:30:31.880Z,100889.00
2018-01-21T05:31:37.431Z,100883.69
2018-01-21T05:32:43.148Z,100895.66
2018-01-21T05:33:48.208Z,100897.58
2018-01-21T05:34:54.361Z,100892.42
2018-01-21T05:35:59.338Z,100897.67
2018-01-21T05:37:03.522Z,100901.25
2018-01-21T05:38:08.624Z,100896.52
2018-01-21T05:39:13.586Z,100901.83
2018-01-21T05:40:17.792Z,100899.83
2018-01-21T05:41:22.534Z,100896.84
2018-01-21T05:42:28.914Z,100897.28
2018-01-21T05:43:33.025Z,100905.27
2018-01-21T05:44:38.052Z,100896.48
2018-01-21T05:45:43.764Z,100901.27
2018-01-21T05:46:48.762Z,100907.30
2018-01-21T05:47:53.345Z,100915.44
2018-01-21T05:48:59.167Z,100920.11
2018-01-21T05:50:04.544Z,100919.56
2018-01-21T05:51:09.731Z,100923.02
2018-01-21T05:52:14.280Z,100920.33
2018-01-21T05:53:19.705Z,100926.41
2018-01-21T05:54:24.014Z,100925.82
2018-01-21T05:55:28.613Z,100922.91
2018-01-21T05:56:33.788Z,100930.41
2018-01-21T05:57:39.765Z,100932.17
2018-01-21T05:58:44.933Z,100933.97
2018-01-21T05:59:50.691Z,100939.69
2018-01-21T06:00:57.970Z,100932.61
2018-01-21T06:02:02.684Z,100941.98
2018-01-21T06:03:07.209Z,100939.05
2018-01-21T06:04:12.035Z,100950.86
2018-01-21T06:05:17.485Z,100944.17
2018-01-21T06:06:24.862Z,100951.54
2018-01-21T06:07:29.964Z,100950.06
2018-01-21T06:08:34.168Z,100954.40
2018-01-21T06:09:38.621Z,100956.66
2018-01-21T06:10:42.864Z,100955.05
2018-01-21T06:11:46.956Z,100956.57
2018-01-21T06:12:51.965Z,100957.09
2018-01-21T06:13:56.895Z,100961.05
2018-01-21T06:15:04.707Z,100957.54
2018-01-21T06:16:08.985Z,100964.13
2018-01-21T06:17:14.293Z,100969.89
2018-01-21T06:18:18.778Z,100969.05
2018-01-21T06:20:40.796Z,100973.93
2018-01-21T06:21:46.022Z,100978.32
2018-01-21T06:22:51.021Z,100975.64
2018-01-21T06:23:55.831Z,100978.23
2018-01-21T06:25:01.517Z,100988.53
2018-01-21T06:26:06.356Z,100988.86
2018-01-21T06:27:11.602Z,100992.92
2018-01-21T06:28:16.380Z,100992.20
2018-01-21T06:29:22.530Z,100989.61
2018-01-21T06:30:28.263Z,100999.28
2018-01-21T06:31:32.473Z,100994.39
2018-01-21T06:32:36.709Z,101000.05
2018-01-21T06:33:41.188Z,101000.00
2018-01-21T06:34:45.357Z,101001.71
2018-01-21T06:35:50.343Z,101006.09
2018-01-21T06:36:54.551Z,101014.83
2018-01-21T06:37:59.738Z,101013.02
2018-01-21T06:39:07.491Z,101021.86
2018-01-21T06:40:12.614Z,101018.49
2018-01-21T06:41:19.151Z,101023.28
2018-01-21T06:42:25.095Z,101030.20
2018-01-21T06:43:31.287Z,101027.17
2018-01-21T06:44:37.995Z,101030.95
2018-01-21T06:45:43.200Z,101039.17
2018-01-21T06:46:48.163Z,101036.74
2018-01-21T06:47:52.340Z,101041.34
2018-01-21T06:48:57.254Z,101051.19
2018-01-21T06:50:03.261Z,101047.45
2018-01-21T06:51:08.755Z,101055.62
2018-01-21T06:52:13.503Z,101049.85
2018-01-21T06:53:17.850Z,101053.72
2018-01-21T06:54:23.422Z,101053.63
2018-01-21T06:55:28.459Z,101054.06
2018-01-21T06:56:33.895Z,101058.37
2018-01-21T06:57:40.443Z,101060.91
2018-01-21T06:58:47.699Z,101060.03
2018-01-21T06:59:52.485Z,101063.02
2018-01-21T07:00:57.741Z,101069.50
2018-01-21T07:02:03.066Z,101072.05
2018-01-21T07:03:07.920Z,101072.91
2018-01-21T07:04:13.522Z,101070.12
2018-01-21T07:05:18.674Z,101073.69
2018-01-21T07:06:24.051Z,101076.76
2018-01-21T07:07:29.902Z,101084.34
2018-01-21T07:08:36.061Z,101087.28
2018-01-21T07:09:40.835Z,101083.09
2018-01-21T07:10:45.121Z,101085.77
2018-01-21T07:11:50.359Z,101088.35
2018-01-21T07:12:55.482Z,101087.69
2018-01-21T07:14:00.194Z,101089.67
2018-01-21T07:15:07.941Z,101090.61
2018-01-21T07:16:13.118Z,101087.63
2018-01-21T07:17:18.810Z,101093.94
2018-01-21T07:18:23.047Z,101095.82
2018-01-21T07:19:29.710Z,101095.98
2018-01-21T07:20:36.555Z,101104.53
2018-01-21T07:21:42.263Z,101094.23
2018-01-21T07:22:46.364Z,101104.59
2018-01-21T07:23:51.739Z,101109.17
2018-01-21T07:24:57.360Z,101106.52
2018-01-21T07:26:01.538Z,101106.64
2018-01-21T07:27:06.394Z,101115.45
2018-01-21T07:28:10.591Z,101112.80
2018-01-21T07:29:14.856Z,101122.29
2018-01-21T07:30:21.083Z,101124.33
2018-01-21T07:31:25.489Z,101124.48
2018-01-21T07:32:31.215Z,101131.14
2018-01-21T07:33:36.264Z,101135.90
2018-01-21T07:34:41.720Z,101135.33
2018-01-21T07:35:46.320Z,101133.84
2018-01-21T07:36:51.371Z,101132.84
2018-01-21T07:37:56.800Z,101140.80
2018-01-21T07:39:01.663Z,101139.98
2018-01-21T07:40:06.414Z,101148.58
2018-01-21T07:41:11.413Z,101151.25
2018-01-21T07:42:15.914Z,101149.37
2018-01-21T07:43:22.881Z,101157.54
2018-01-21T07:44:28.390Z,101157.39
2018-01-21T07:45:33.552Z,101161.19
2018-01-21T07:46:37.827Z,101158.97
2018-01-21T07:47:43.838Z,101172.50
2018-01-21T07:48:49.233Z,101167.12
2018-01-21T07:49:54.192Z,101166.78
2018-01-21T07:51:00.034Z,101175.76
2018-01-21T07:52:04.890Z,101169.02
2018-01-21T07:53:09.750Z,101172.98
2018-01-21T07:54:14.166Z,101172.56
2018-01-21T07:55:18.995Z,101182.71
2018-01-21T07:56:23.820Z,101179.74
2018-01-21T07:58:56.990Z,101177.89
2018-01-21T08:00:02.166Z,101179.95
2018-01-21T08:01:07.842Z,101183.97
2018-01-21T08:02:12.053Z,101186.38
2018-01-21T08:03:16.251Z,101185.11
2018-01-21T08:04:21.302Z,101190.83
2018-01-21T08:05:26.813Z,101186.23
2018-01-21T08:06:31.037Z,101190.91
2018-01-21T08:07:35.297Z,101200.09
2018-01-21T08:08:39.546Z,101197.92
2018-01-21T08:09:43.846Z,101213.37
2018-01-21T08:10:49.372Z,101210.53
2018-01-21T08:11:53.589Z,101208.61
2018-01-21T08:12:59.187Z,101208.15
2018-01-21T08:14:03.402Z,101212.44
2018-01-21T08:15:08.352Z,101215.88
2018-01-21T08:16:14.945Z,101220.17
2018-01-21T08:17:19.194Z,101219.25
2018-01-21T08:18:24.195Z,101212.17
2018-01-21T08:19:29.181Z,101222.16
2018-01-21T08:20:35.012Z,101219.39
2018-01-21T08:21:41.367Z,101221.17
2018-01-21T08:22:45.800Z,101222.33
2018-01-21T08:23:50.850Z,101225.50
2018-01-21T08:24:54.974Z,101229.14
2018-01-21T08:26:00.261Z,101232.30
2018-01-21T08:27:05.334Z,101231.08
2018-01-21T08:28:10.197Z,101220.28
2018-01-21T08:29:14.412Z,101219.22
2018-01-21T08:30:20.014Z,101226.87
2018-01-21T08:31:32.419Z,101222.45
2018-01-21T08:33:51.793Z,101220.27
2018-01-21T08:37:01.910Z,101232.31
2018-01-21T08:40:13.552Z,101231.69
2018-01-21T08:41:36.656Z,101235.17
2018-01-21T08:42:41.350Z,101241.30
2018-01-21T08:43:46.224Z,101240.45
2018-01-21T08:44:50.549Z,101244.38
2018-01-21T08:45:56.388Z,101247.27
2018-01-21T08:47:00.615Z,101247.15
2018-01-21T08:48:06.576Z,101252.44
2018-01-21T08:49:11.738Z,101252.52
2018-01-21T08:50:16.738Z,101258.41
2018-01-21T08:51:22.477Z,101251.81
2018-01-21T08:52:27.331Z,101261.92
2018-01-21T08:53:32.123Z,101268.94
2018-01-21T08:54:37.662Z,101271.15
2018-01-21T08:55:43.340Z,101276.12
2018-01-21T08:56:48.210Z,101281.05
2018-01-21T08:57:52.825Z,101274.94
2018-01-21T08:58:57.782Z,101276.69
2018-01-21T09:00:04.426Z,101281.28
2018-01-21T09:01:10.686Z,101279.34
2018-01-21T09:02:16.329Z,101276.55
2018-01-21T09:03:21.191Z,101272.47
2018-01-21T09:04:27.224Z,101274.06
2018-01-21T09:05:31.577Z,101272.75
2018-01-21T09:06:35.766Z,101271.96
2018-01-21T09:07:41.464Z,101265.02
2018-01-21T09:08:46.369Z,101274.45
2018-01-21T09:09:50.521Z,101286.59
2018-01-21T09:10:54.828Z,101285.83
2018-01-21T09:12:00.552Z,101288.92
2018-01-21T09:13:06.481Z,101283.73
2018-01-21T09:14:12.125Z,101280.86
2018-01-21T09:15:17.351Z,101291.16
2018-01-21T09:16:23.264Z,101281.86
2018-01-21T09:17:29.156Z,101293.50
2018-01-21T09:18:34.955Z,101285.50
2018-01-21T09:19:40.453Z,101288.86
2018-01-21T09:20:46.988Z,101281.97
2018-01-21T09:21:51.595Z,101288.67
2018-01-21T09:22:56.015Z,101288.45
2018-01-21T09:24:00.329Z,101297.84
2018-01-21T09:25:05.352Z,101300.19
2018-01-21T09:26:09.770Z,101300.40
2018-01-21T09:27:14.005Z,101305.96
2018-01-21T09:28:19.054Z,101303.19
2018-01-21T09:29:24.898Z,101299.39
2018-01-21T09:30:31.041Z,101308.09
2018-01-21T09:31:35.277Z,101303.30
2018-01-21T09:32:41.913Z,101308.57
2018-01-21T09:33:46.462Z,101308.42
2018-01-21T09:34:50.810Z,101310.93
2018-01-21T09:35:56.968Z,101313.12
2018-01-21T09:37:01.982Z,101312.12
2018-01-21T09:38:07.390Z,101310.94
2018-01-21T09:39:13.935Z,101321.75
2018-01-21T09:40:20.864Z,101314.96
2018-01-21T09:41:26.622Z,101322.94
2018-01-21T09:42:31.765Z,101322.45
2018-01-21T09:43:36.614Z,101324.84
2018-01-21T09:44:41.209Z,101333.09
2018-01-21T09:45:46.065Z,101336.64
2018-01-21T09:46:51.158Z,101331.61
2018-01-21T09:47:56.334Z,101340.23
2018-01-21T09:49:02.010Z,101331.78
2018-01-21T09:50:07.198Z,101337.67
2018-01-21T09:51:13.844Z,101342.86
2018-01-21T09:52:18.466Z,101353.41
2018-01-21T09:53:24.163Z,101350.86
2018-01-21T09:54:28.406Z,101353.66
2018-01-21T09:55:33.527Z,101354.72
2018-01-21T09:56:38.770Z,101362.47
2018-01-21T09:57:43.249Z,101362.00
2018-01-21T09:58:49.735Z,101366.41
2018-01-21T09:59:55.156Z,101370.46
2018-01-21T10:00:59.470Z,101372.02
2018-01-21T10:02:03.672Z,101377.88
2018-01-21T10:03:08.860Z,101376.05
2018-01-21T10:04:13.908Z,101380.77
2018-01-21T10:05:21.344Z,101386.07
2018-01-21T10:06:26.207Z,101389.49
2018-01-21T10:07:31.103Z,101393.05
2018-01-21T10:08:35.982Z,101391.78
2018-01-21T10:09:41.150Z,101390.88
2018-01-21T10:10:45.486Z,101392.80
2018-01-21T10:11:51.166Z,101388.78
2018-01-21T10:12:56.390Z,101388.03
2018-01-21T10:14:00.647Z,101392.83
2018-01-21T10:15:07.620Z,101388.19
2018-01-21T10:16:12.286Z,101395.87
2018-01-21T10:17:17.766Z,101395.90
2018-01-21T10:18:23.250Z,101391.59
2018-01-21T10:19:27.585Z,101397.30
2018-01-21T10:20:32.921Z,101402.41
2018-01-21T10:21:37.782Z,101400.20
2018-01-21T10:22:42.742Z,101402.64
2018-01-21T10:23:48.426Z,101396.78
2018-01-21T10:24:55.022Z,101403.89
2018-01-21T10:26:01.167Z,101407.39
2018-01-21T10:27:05.737Z,101402.77
2018-01-21T10:28:10.752Z,101411.09
2018-01-21T10:29:15.707Z,101414.78
2018-01-21T10:30:21.879Z,101413.72
2018-01-21T10:31:27.434Z,101419.58
2018-01-21T10:32:32.020Z,101416.67
2018-01-21T10:33:37.288Z,101418.84
2018-01-21T10:34:41.578Z,101419.20
2018-01-21T10:35:46.696Z,101416.50
2018-01-21T10:36:51.629Z,101415.64
2018-01-21T10:37:57.139Z,101416.41
2018-01-21T10:39:01.688Z,101421.29
2018-01-21T10:40:06.420Z,101423.72
2018-01-21T10:41:12.121Z,101420.23
2018-01-21T10:42:17.587Z,101424.16
2018-01-21T10:43:29.952Z,101436.16
2018-01-21T10:44:34.336Z,101426.58
2018-01-21T10:45:39.098Z,101426.85
2018-01-21T10:46:44.753Z,101431.71
2018-01-21T10:47:49.180Z,101437.69
2018-01-21T10:48:55.071Z,101438.33
2018-01-21T10:49:59.818Z,101443.95
2018-01-21T10:51:05.979Z,101444.63
2018-01-21T10:52:11.097Z,101442.36
2018-01-21T10:53:15.781Z,101452.48
2018-01-21T10:54:21.135Z,101457.27
2018-01-21T10:55:26.196Z,101451.47
2018-01-21T10:56:30.857Z,101457.53
2018-01-21T10:57:35.402Z,101452.20
2018-01-21T10:58:41.427Z,101453.93
2018-01-21T10:59:46.073Z,101452.39
2018-01-21T11:00:56.211Z,101452.96
2018-01-21T11:02:01.264Z,101456.85
2018-01-21T11:03:05.526Z,101455.77
2018-01-21T11:04:11.306Z,101453.80
2018-01-21T11:05:15.993Z,101454.81
2018-01-21T11:06:20.657Z,101454.04
2018-01-21T11:07:27.883Z,101451.67
2018-01-21T11:08:36.545Z,101456.60
2018-01-21T11:09:42.912Z,101462.37
2018-01-21T11:10:49.950Z,101464.39
2018-01-21T11:11:54.618Z,101467.86
2018-01-21T11:13:04.895Z,101467.55
2018-01-21T11:14:14.624Z,101466.89
2018-01-21T11:15:21.185Z,101468.76
2018-01-21T11:16:27.343Z,101476.29
2018-01-21T11:17:32.337Z,101472.44
2018-01-21T11:18:38.131Z,101473.45
2018-01-21T11:19:43.022Z,101465.06
2018-01-21T11:20:49.249Z,101474.95
2018-01-21T11:21:54.148Z,101470.53
2018-01-21T11:22:58.480Z,101476.88
2018-01-21T11:24:04.000Z,101470.70
2018-01-21T11:25:10.264Z,101469.86
2018-01-21T11:26:16.624Z,101465.67
2018-01-21T11:27:22.374Z,101472.77
2018-01-21T11:28:26.834Z,101470.05
2018-01-21T11:29:36.525Z,101476.70
2018-01-21T11:30:42.129Z,101473.75
2018-01-21T11:31:49.041Z,101475.42
2018-01-21T11:32:55.645Z,101469.23
2018-01-21T11:34:01.337Z,101471.33
2018-01-21T11:35:08.383Z,101474.58
2018-01-21T11:36:14.924Z,101471.06
2018-01-21T11:37:22.229Z,101465.44
2018-01-21T11:38:29.893Z,101471.25
2018-01-21T11:39:35.594Z,101472.45
2018-01-21T11:40:42.222Z,101467.11
2018-01-21T11:41:48.609Z,101460.38
2018-01-21T11:42:54.331Z,101468.84
2018-01-21T11:44:02.027Z,101466.08
2018-01-21T11:45:07.179Z,101472.25
2018-01-21T11:46:12.585Z,101470.48
2018-01-21T11:47:19.643Z,101464.12
2018-01-21T11:48:27.856Z,101464.39
2018-01-21T11:49:34.444Z,101467.23
2018-01-21T11:50:41.806Z,101469.47
2018-01-21T11:51:46.420Z,101475.31
2018-01-21T11:52:52.947Z,101470.23
2018-01-21T11:54:00.011Z,101473.76
2018-01-21T11:55:06.767Z,101472.49
2018-01-21T11:56:14.363Z,101474.95
2018-01-21T11:57:22.815Z,101472.20
2018-01-21T11:58:32.094Z,101473.00
2018-01-21T11:59:39.288Z,101480.02
2018-01-21T12:00:46.156Z,101475.83
2018-01-21T12:01:55.425Z,101477.32
2018-01-21T12:03:04.078Z,101473.47
2018-01-21T12:04:09.353Z,101473.42
2018-01-21T12:05:14.551Z,101483.12
2018-01-21T12:06:21.576Z,101474.23
2018-01-21T12:07:26.495Z,101476.70
2018-01-21T12:08:35.154Z,101470.48
2018-01-21T12:09:43.239Z,101479.50
2018-01-21T12:10:50.710Z,101471.61
2018-01-21T12:11:58.615Z,101472.58
2018-01-21T12:13:07.391Z,101470.98
2018-01-21T12:14:14.578Z,101473.94
2018-01-21T12:15:21.401Z,101480.91
2018-01-21T12:16:29.168Z,101479.34
2018-01-21T12:17:36.573Z,101474.43
2018-01-21T12:18:44.993Z,101477.50
2018-01-21T12:19:52.352Z,101479.16
2018-01-21T12:20:58.789Z,101481.06
2018-01-21T12:22:06.472Z,101482.30
2018-01-21T12:23:14.400Z,101486.56
2018-01-21T12:24:22.871Z,101486.28
2018-01-21T12:25:29.004Z,101485.38
2018-01-21T12:26:34.938Z,101481.14
2018-01-21T12:27:40.405Z,101482.10
2018-01-21T12:28:46.656Z,101486.83
2018-01-21T12:29:52.921Z,101484.77
2018-01-21T12:30:58.648Z,101480.11
2018-01-21T12:32:03.790Z,101480.59
2018-01-21T12:33:09.751Z,101487.49